This is the latest recevied weather packets stored in our database for station/object K6MBY. If no packets are shown the sender has not sent any weather packets the latest 10 day(s).
| Time | Temp. | Humidity | Pressure | Rain* | Wind** | Luminosity | Snow |
|---|---|---|---|---|---|---|---|
| 1777784292 | 16.11° C | 65% | 1018 hPa | 0 mm | - | 0 W/m² | - |
| 1777783990 | 17.22° C | 62% | 1018 hPa | 0 mm | - | 0 W/m² | - |
| 1777783685 | 18.89° C | 50% | 1018 hPa | 0 mm | - | 0 W/m² | - |
| 1777783382 | 19.44° C | 52% | 1018 hPa | 0 mm | - | 0 W/m² | - |
| 1777783080 | 19.44° C | 52% | 1017.8 hPa | 0 mm | - | 0 W/m² | - |
| 1777782777 | 19.44° C | 52% | 1017.9 hPa | 0 mm | - | 0 W/m² | - |
| 1777782472 | 19.44° C | 51% | 1017.9 hPa | 0 mm | - | 0 W/m² | - |
| 1777782169 | 19.44° C | 50% | 1017.8 hPa | 0 mm | - | 0 W/m² | - |
| 1777781865 | 20° C | 49% | 1017.7 hPa | 0 mm | - | 0 W/m² | - |
| 1777781558 | 20° C | 49% | 1017.8 hPa | 0 mm | - | 0 W/m² | - |
| 1777781255 | 20° C | 49% | 1017.7 hPa | 0 mm | - | 0 W/m² | - |
| 1777780953 | 20° C | 49% | 1017.8 hPa | 0 mm | - | 0 W/m² | - |
| 1777780649 | 20° C | 49% | 1017.6 hPa | 0 mm | - | 0 W/m² | - |
| 1777780347 | 20° C | 50% | 1017.7 hPa | 0 mm | - | 0 W/m² | - |
| 1777780044 | 20° C | 56% | 1017.5 hPa | 0 mm | - | 0 W/m² | - |
| 1777779741 | 20.56° C | 49% | 1017.4 hPa | 0 mm | - | 1 W/m² | - |
| 1777779438 | 20.56° C | 49% | 1017.3 hPa | 0 mm | - | 1 W/m² | - |
| 1777779135 | 21.11° C | 49% | 1017.4 hPa | 0 mm | - | 3 W/m² | - |
| 1777778834 | 21.11° C | 46% | 1017.3 hPa | 0 mm | - | 4 W/m² | - |
| 1777778532 | 21.67° C | 46% | 1017.3 hPa | 0 mm | - | 7 W/m² | - |
| 1777778228 | 21.67° C | 45% | 1017.2 hPa | 0 mm | - | 9 W/m² | - |
| 1777777927 | 21.67° C | 46% | 1017.3 hPa | 0 mm | - | 13 W/m² | - |
| 1777777622 | 21.67° C | 45% | 1017.4 hPa | 0 mm | - | 16 W/m² | - |
| 1777777319 | 22.22° C | 43% | 1017.2 hPa | 0 mm | - | 20 W/m² | - |
| 1777777016 | 22.22° C | 43% | 1017.2 hPa | 0 mm | - | 23 W/m² | - |
* Rain latest hour (hover to see other rain measurements)
** Current wind speed in m/s (hover to see current wind gust speed)